Terminal Aerodrome Forecast
Issued by NWS

Home | Current Version | Previous Version | Text Only | Print | Product List | Glossary On
Versions: 1 2 3 4 5 6 7 8 9 10 11 12 13 14 15 16 17 18 19 20 21 22 23 24 25 26 27 28 29 30 31
000
FTUS44 KBMX 230940 AAA
TAFASN
TAF AMD
KASN 230940Z 2310/2406 00000KT 3SM BR SKC
     FM231300 VRB03KT P6SM SKC
     FM231600 08005KT P6SM SCT040
     FM240000 00000KT P6SM SCT250=

USA.gov is the U.S. government's official web portal to all federal, state and local government web resources and services.